sensor_id;sensor_type;location;lat;lon;timestamp;P1;durP1;ratioP1;P2;durP2;ratioP2
22234;SDS011;11286;45.596;5.284;2023-03-26T00:01:52;8.77;;;5.03;;
22234;SDS011;11286;45.596;5.284;2023-03-26T00:04:18;6.85;;;4.43;;
22234;SDS011;11286;45.596;5.284;2023-03-26T00:06:45;9.00;;;4.47;;
22234;SDS011;11286;45.596;5.284;2023-03-26T00:09:13;7.03;;;4.57;;
22234;SDS011;11286;45.596;5.284;2023-03-26T00:11:40;7.60;;;4.35;;
22234;SDS011;11286;45.596;5.284;2023-03-26T00:14:06;6.75;;;4.63;;
22234;SDS011;11286;45.596;5.284;2023-03-26T00:16:33;7.90;;;4.85;;
22234;SDS011;11286;45.596;5.284;2023-03-26T00:18:59;10.00;;;5.47;;
22234;SDS011;11286;45.596;5.284;2023-03-26T00:21:26;7.13;;;4.70;;
22234;SDS011;11286;45.596;5.284;2023-03-26T00:23:54;7.20;;;4.50;;
22234;SDS011;11286;45.596;5.284;2023-03-26T00:26:22;7.78;;;4.85;;
22234;SDS011;11286;45.596;5.284;2023-03-26T00:28:48;11.60;;;6.00;;
22234;SDS011;11286;45.596;5.284;2023-03-26T00:31:15;9.45;;;6.30;;
22234;SDS011;11286;45.596;5.284;2023-03-26T00:33:42;11.93;;;5.78;;
22234;SDS011;11286;45.596;5.284;2023-03-26T00:36:12;8.73;;;5.80;;
22234;SDS011;11286;45.596;5.284;2023-03-26T00:38:39;8.93;;;5.30;;
22234;SDS011;11286;45.596;5.284;2023-03-26T00:41:07;7.38;;;4.82;;
22234;SDS011;11286;45.596;5.284;2023-03-26T00:43:41;10.10;;;5.60;;
22234;SDS011;11286;45.596;5.284;2023-03-26T00:46:07;9.57;;;5.93;;
22234;SDS011;11286;45.596;5.284;2023-03-26T00:48:33;9.48;;;5.60;;
22234;SDS011;11286;45.596;5.284;2023-03-26T00:51:03;7.95;;;5.60;;
22234;SDS011;11286;45.596;5.284;2023-03-26T00:53:29;8.00;;;5.43;;
22234;SDS011;11286;45.596;5.284;2023-03-26T00:55:56;9.13;;;5.65;;
22234;SDS011;11286;45.596;5.284;2023-03-26T00:58:24;9.73;;;5.47;;
22234;SDS011;11286;45.596;5.284;2023-03-26T01:00:52;9.55;;;4.95;;
22234;SDS011;11286;45.596;5.284;2023-03-26T01:03:21;8.40;;;4.80;;
22234;SDS011;11286;45.596;5.284;2023-03-26T01:06:00;9.15;;;4.75;;
22234;SDS011;11286;45.596;5.284;2023-03-26T01:08:32;9.18;;;4.93;;
22234;SDS011;11286;45.596;5.284;2023-03-26T01:11:19;6.90;;;4.35;;
22234;SDS011;11286;45.596;5.284;2023-03-26T01:13:59;6.85;;;4.72;;
22234;SDS011;11286;45.596;5.284;2023-03-26T01:16:35;7.22;;;4.00;;
22234;SDS011;11286;45.596;5.284;2023-03-26T01:19:07;6.00;;;3.40;;
22234;SDS011;11286;45.596;5.284;2023-03-26T01:21:40;6.68;;;3.35;;
22234;SDS011;11286;45.596;5.284;2023-03-26T01:24:07;6.18;;;3.00;;
22234;SDS011;11286;45.596;5.284;2023-03-26T01:26:46;5.85;;;2.63;;
22234;SDS011;11286;45.596;5.284;2023-03-26T01:32:23;6.93;;;3.30;;
22234;SDS011;11286;45.596;5.284;2023-03-26T01:35:19;7.65;;;3.53;;
22234;SDS011;11286;45.596;5.284;2023-03-26T01:37:58;6.13;;;3.30;;
22234;SDS011;11286;45.596;5.284;2023-03-26T01:43:12;4.22;;;2.50;;
22234;SDS011;11286;45.596;5.284;2023-03-26T01:45:57;6.35;;;2.45;;
22234;SDS011;11286;45.596;5.284;2023-03-26T01:48:32;4.63;;;2.70;;
22234;SDS011;11286;45.596;5.284;2023-03-26T01:51:00;7.20;;;2.63;;
22234;SDS011;11286;45.596;5.284;2023-03-26T01:53:26;4.70;;;2.30;;
22234;SDS011;11286;45.596;5.284;2023-03-26T01:58:51;5.43;;;2.70;;
22234;SDS011;11286;45.596;5.284;2023-03-26T02:01:35;5.97;;;2.63;;
22234;SDS011;11286;45.596;5.284;2023-03-26T02:07:18;5.15;;;2.35;;
22234;SDS011;11286;45.596;5.284;2023-03-26T02:09:49;4.60;;;2.17;;
22234;SDS011;11286;45.596;5.284;2023-03-26T02:12:19;5.43;;;2.30;;
22234;SDS011;11286;45.596;5.284;2023-03-26T02:14:46;6.05;;;2.20;;
22234;SDS011;11286;45.596;5.284;2023-03-26T02:17:12;4.47;;;2.13;;
22234;SDS011;11286;45.596;5.284;2023-03-26T02:19:38;5.45;;;2.00;;
22234;SDS011;11286;45.596;5.284;2023-03-26T02:22:07;2.90;;;1.67;;
22234;SDS011;11286;45.596;5.284;2023-03-26T02:24:36;4.07;;;1.98;;
22234;SDS011;11286;45.596;5.284;2023-03-26T02:27:02;5.15;;;2.13;;
22234;SDS011;11286;45.596;5.284;2023-03-26T02:29:31;3.90;;;1.98;;
22234;SDS011;11286;45.596;5.284;2023-03-26T02:32:04;4.50;;;1.80;;
22234;SDS011;11286;45.596;5.284;2023-03-26T02:34:31;5.03;;;1.92;;
22234;SDS011;11286;45.596;5.284;2023-03-26T02:36:57;5.13;;;1.95;;
22234;SDS011;11286;45.596;5.284;2023-03-26T02:39:23;3.10;;;1.80;;
22234;SDS011;11286;45.596;5.284;2023-03-26T02:41:49;6.18;;;1.85;;
22234;SDS011;11286;45.596;5.284;2023-03-26T02:44:14;4.25;;;1.90;;
22234;SDS011;11286;45.596;5.284;2023-03-26T02:46:40;3.95;;;1.67;;
22234;SDS011;11286;45.596;5.284;2023-03-26T02:49:06;7.25;;;1.90;;
22234;SDS011;11286;45.596;5.284;2023-03-26T02:51:32;5.80;;;1.70;;
22234;SDS011;11286;45.596;5.284;2023-03-26T02:54:01;5.13;;;1.60;;
22234;SDS011;11286;45.596;5.284;2023-03-26T02:56:27;4.75;;;1.90;;
22234;SDS011;11286;45.596;5.284;2023-03-26T02:58:53;4.88;;;1.50;;
22234;SDS011;11286;45.596;5.284;2023-03-26T03:01:18;4.60;;;1.73;;
22234;SDS011;11286;45.596;5.284;2023-03-26T03:03:44;3.08;;;1.50;;
22234;SDS011;11286;45.596;5.284;2023-03-26T03:06:14;5.10;;;1.70;;
22234;SDS011;11286;45.596;5.284;2023-03-26T03:08:44;4.97;;;1.60;;
22234;SDS011;11286;45.596;5.284;2023-03-26T03:11:11;4.53;;;1.65;;
22234;SDS011;11286;45.596;5.284;2023-03-26T03:13:39;4.90;;;1.70;;
22234;SDS011;11286;45.596;5.284;2023-03-26T03:16:05;3.95;;;1.48;;
22234;SDS011;11286;45.596;5.284;2023-03-26T03:18:31;3.85;;;1.60;;
22234;SDS011;11286;45.596;5.284;2023-03-26T03:20:57;5.95;;;1.73;;
22234;SDS011;11286;45.596;5.284;2023-03-26T03:23:23;4.95;;;1.77;;
22234;SDS011;11286;45.596;5.284;2023-03-26T03:25:48;4.70;;;1.73;;
22234;SDS011;11286;45.596;5.284;2023-03-26T03:28:16;4.43;;;1.60;;
22234;SDS011;11286;45.596;5.284;2023-03-26T03:30:42;5.22;;;1.50;;
22234;SDS011;11286;45.596;5.284;2023-03-26T03:33:08;3.63;;;1.77;;
22234;SDS011;11286;45.596;5.284;2023-03-26T03:35:34;3.42;;;1.38;;
22234;SDS011;11286;45.596;5.284;2023-03-26T03:38:01;5.25;;;2.00;;
22234;SDS011;11286;45.596;5.284;2023-03-26T03:40:27;4.32;;;1.80;;
22234;SDS011;11286;45.596;5.284;2023-03-26T03:42:53;4.47;;;1.60;;
22234;SDS011;11286;45.596;5.284;2023-03-26T03:45:18;3.60;;;1.50;;
22234;SDS011;11286;45.596;5.284;2023-03-26T03:47:44;6.97;;;1.73;;
22234;SDS011;11286;45.596;5.284;2023-03-26T03:50:10;6.22;;;2.10;;
22234;SDS011;11286;45.596;5.284;2023-03-26T03:52:35;3.00;;;1.48;;
22234;SDS011;11286;45.596;5.284;2023-03-26T03:55:01;3.30;;;1.50;;
22234;SDS011;11286;45.596;5.284;2023-03-26T03:57:27;3.13;;;1.58;;
22234;SDS011;11286;45.596;5.284;2023-03-26T03:59:53;3.97;;;1.73;;
22234;SDS011;11286;45.596;5.284;2023-03-26T04:02:22;4.05;;;1.58;;
22234;SDS011;11286;45.596;5.284;2023-03-26T04:04:54;2.78;;;1.42;;
22234;SDS011;11286;45.596;5.284;2023-03-26T04:07:22;2.50;;;1.70;;
22234;SDS011;11286;45.596;5.284;2023-03-26T04:09:52;3.97;;;1.98;;
22234;SDS011;11286;45.596;5.284;2023-03-26T04:12:17;3.38;;;1.50;;
22234;SDS011;11286;45.596;5.284;2023-03-26T04:14:43;5.20;;;1.88;;
22234;SDS011;11286;45.596;5.284;2023-03-26T04:17:09;2.90;;;1.80;;
22234;SDS011;11286;45.596;5.284;2023-03-26T04:19:37;7.28;;;1.98;;
22234;SDS011;11286;45.596;5.284;2023-03-26T04:22:03;3.78;;;1.40;;
22234;SDS011;11286;45.596;5.284;2023-03-26T04:24:29;4.22;;;1.80;;
22234;SDS011;11286;45.596;5.284;2023-03-26T04:26:58;3.70;;;1.90;;
22234;SDS011;11286;45.596;5.284;2023-03-26T04:29:27;2.50;;;1.60;;
22234;SDS011;11286;45.596;5.284;2023-03-26T04:31:58;4.50;;;1.50;;
22234;SDS011;11286;45.596;5.284;2023-03-26T04:34:30;3.50;;;1.58;;
22234;SDS011;11286;45.596;5.284;2023-03-26T04:36:58;3.78;;;1.73;;
22234;SDS011;11286;45.596;5.284;2023-03-26T04:39:26;4.43;;;1.65;;
22234;SDS011;11286;45.596;5.284;2023-03-26T04:41:54;4.40;;;1.40;;
22234;SDS011;11286;45.596;5.284;2023-03-26T04:44:21;2.65;;;1.50;;
22234;SDS011;11286;45.596;5.284;2023-03-26T04:46:48;4.78;;;1.75;;
22234;SDS011;11286;45.596;5.284;2023-03-26T04:49:14;3.75;;;1.58;;
22234;SDS011;11286;45.596;5.284;2023-03-26T04:51:40;2.30;;;1.45;;
22234;SDS011;11286;45.596;5.284;2023-03-26T04:54:06;2.63;;;1.30;;
22234;SDS011;11286;45.596;5.284;2023-03-26T04:59:19;5.35;;;1.65;;
22234;SDS011;11286;45.596;5.284;2023-03-26T05:01:54;5.47;;;1.70;;
22234;SDS011;11286;45.596;5.284;2023-03-26T05:04:24;4.15;;;1.40;;
22234;SDS011;11286;45.596;5.284;2023-03-26T05:06:51;5.28;;;1.63;;
22234;SDS011;11286;45.596;5.284;2023-03-26T05:09:17;4.90;;;1.63;;
22234;SDS011;11286;45.596;5.284;2023-03-26T05:11:43;3.10;;;1.35;;
22234;SDS011;11286;45.596;5.284;2023-03-26T05:14:09;3.42;;;1.52;;
22234;SDS011;11286;45.596;5.284;2023-03-26T05:16:35;3.35;;;1.60;;
22234;SDS011;11286;45.596;5.284;2023-03-26T05:19:01;3.38;;;1.80;;
22234;SDS011;11286;45.596;5.284;2023-03-26T05:21:27;5.40;;;1.92;;
22234;SDS011;11286;45.596;5.284;2023-03-26T05:23:52;8.30;;;1.92;;
22234;SDS011;11286;45.596;5.284;2023-03-26T05:26:18;5.38;;;1.75;;
22234;SDS011;11286;45.596;5.284;2023-03-26T05:28:44;5.97;;;1.77;;
22234;SDS011;11286;45.596;5.284;2023-03-26T05:31:10;6.32;;;2.25;;
22234;SDS011;11286;45.596;5.284;2023-03-26T05:33:35;7.28;;;1.92;;
22234;SDS011;11286;45.596;5.284;2023-03-26T05:38:29;5.13;;;1.90;;
22234;SDS011;11286;45.596;5.284;2023-03-26T05:40:59;7.90;;;1.95;;
22234;SDS011;11286;45.596;5.284;2023-03-26T05:43:26;6.25;;;2.72;;
22234;SDS011;11286;45.596;5.284;2023-03-26T05:45:52;6.45;;;3.50;;
22234;SDS011;11286;45.596;5.284;2023-03-26T05:48:18;6.72;;;2.30;;
22234;SDS011;11286;45.596;5.284;2023-03-26T05:50:46;8.45;;;2.60;;
22234;SDS011;11286;45.596;5.284;2023-03-26T05:53:16;5.65;;;2.97;;
22234;SDS011;11286;45.596;5.284;2023-03-26T05:55:43;7.07;;;2.30;;
22234;SDS011;11286;45.596;5.284;2023-03-26T05:58:10;5.50;;;2.10;;
22234;SDS011;11286;45.596;5.284;2023-03-26T06:00:36;9.63;;;2.20;;
22234;SDS011;11286;45.596;5.284;2023-03-26T06:03:02;6.75;;;2.13;;
22234;SDS011;11286;45.596;5.284;2023-03-26T06:05:33;6.13;;;2.58;;
22234;SDS011;11286;45.596;5.284;2023-03-26T06:08:01;5.53;;;2.33;;
22234;SDS011;11286;45.596;5.284;2023-03-26T06:10:28;5.78;;;2.15;;
22234;SDS011;11286;45.596;5.284;2023-03-26T06:12:54;7.28;;;2.17;;
22234;SDS011;11286;45.596;5.284;2023-03-26T06:15:20;10.63;;;2.45;;
22234;SDS011;11286;45.596;5.284;2023-03-26T06:17:46;5.28;;;2.25;;
22234;SDS011;11286;45.596;5.284;2023-03-26T06:20:12;5.63;;;2.05;;
22234;SDS011;11286;45.596;5.284;2023-03-26T06:22:38;7.57;;;2.53;;
22234;SDS011;11286;45.596;5.284;2023-03-26T06:25:04;8.38;;;3.53;;
22234;SDS011;11286;45.596;5.284;2023-03-26T06:27:30;7.47;;;2.63;;
22234;SDS011;11286;45.596;5.284;2023-03-26T06:29:55;6.25;;;2.17;;
22234;SDS011;11286;45.596;5.284;2023-03-26T06:32:21;8.98;;;2.47;;
22234;SDS011;11286;45.596;5.284;2023-03-26T06:34:47;6.82;;;2.65;;
22234;SDS011;11286;45.596;5.284;2023-03-26T06:37:14;8.35;;;2.13;;
22234;SDS011;11286;45.596;5.284;2023-03-26T06:39:40;6.22;;;2.30;;
22234;SDS011;11286;45.596;5.284;2023-03-26T06:42:06;10.23;;;2.67;;
22234;SDS011;11286;45.596;5.284;2023-03-26T06:44:32;5.68;;;2.13;;
22234;SDS011;11286;45.596;5.284;2023-03-26T06:46:58;4.43;;;1.98;;
22234;SDS011;11286;45.596;5.284;2023-03-26T06:49:24;8.73;;;2.72;;
22234;SDS011;11286;45.596;5.284;2023-03-26T06:51:49;7.97;;;2.40;;
22234;SDS011;11286;45.596;5.284;2023-03-26T06:54:16;4.70;;;1.70;;
22234;SDS011;11286;45.596;5.284;2023-03-26T06:56:42;5.93;;;2.10;;
22234;SDS011;11286;45.596;5.284;2023-03-26T06:59:08;5.10;;;2.15;;
22234;SDS011;11286;45.596;5.284;2023-03-26T07:01:34;5.80;;;2.35;;
22234;SDS011;11286;45.596;5.284;2023-03-26T07:04:00;10.32;;;3.28;;
22234;SDS011;11286;45.596;5.284;2023-03-26T07:06:26;11.02;;;3.50;;
22234;SDS011;11286;45.596;5.284;2023-03-26T07:08:51;13.88;;;3.40;;
22234;SDS011;11286;45.596;5.284;2023-03-26T07:11:19;8.95;;;3.55;;
22234;SDS011;11286;45.596;5.284;2023-03-26T07:13:48;8.85;;;3.35;;
22234;SDS011;11286;45.596;5.284;2023-03-26T07:16:14;10.32;;;3.03;;
22234;SDS011;11286;45.596;5.284;2023-03-26T07:18:40;11.32;;;3.10;;
22234;SDS011;11286;45.596;5.284;2023-03-26T07:21:06;9.90;;;3.40;;
22234;SDS011;11286;45.596;5.284;2023-03-26T07:23:32;5.93;;;2.40;;
22234;SDS011;11286;45.596;5.284;2023-03-26T07:25:58;7.40;;;2.20;;
22234;SDS011;11286;45.596;5.284;2023-03-26T07:28:38;9.10;;;2.58;;
22234;SDS011;11286;45.596;5.284;2023-03-26T07:31:24;6.70;;;2.40;;
22234;SDS011;11286;45.596;5.284;2023-03-26T07:36:51;8.02;;;2.55;;
22234;SDS011;11286;45.596;5.284;2023-03-26T07:44:55;9.05;;;2.78;;
22234;SDS011;11286;45.596;5.284;2023-03-26T07:47:38;9.05;;;3.42;;
22234;SDS011;11286;45.596;5.284;2023-03-26T07:50:06;12.35;;;3.47;;
22234;SDS011;11286;45.596;5.284;2023-03-26T07:52:38;9.30;;;3.28;;
22234;SDS011;11286;45.596;5.284;2023-03-26T07:55:05;7.43;;;3.38;;
22234;SDS011;11286;45.596;5.284;2023-03-26T07:57:43;8.75;;;3.42;;
22234;SDS011;11286;45.596;5.284;2023-03-26T08:00:17;7.55;;;2.83;;
22234;SDS011;11286;45.596;5.284;2023-03-26T08:13:24;5.45;;;2.20;;
22234;SDS011;11286;45.596;5.284;2023-03-26T08:16:09;5.35;;;2.30;;
22234;SDS011;11286;45.596;5.284;2023-03-26T08:19:02;6.72;;;2.35;;
22234;SDS011;11286;45.596;5.284;2023-03-26T08:21:40;5.40;;;2.22;;
22234;SDS011;11286;45.596;5.284;2023-03-26T08:32:23;6.05;;;2.13;;
22234;SDS011;11286;45.596;5.284;2023-03-26T08:34:50;5.95;;;2.17;;
22234;SDS011;11286;45.596;5.284;2023-03-26T08:37:16;5.22;;;2.38;;
22234;SDS011;11286;45.596;5.284;2023-03-26T08:39:42;6.32;;;1.90;;
22234;SDS011;11286;45.596;5.284;2023-03-26T09:04:19;4.93;;;2.00;;
22234;SDS011;11286;45.596;5.284;2023-03-26T09:36:18;5.93;;;1.92;;
22234;SDS011;11286;45.596;5.284;2023-03-26T09:38:52;3.55;;;1.67;;
22234;SDS011;11286;45.596;5.284;2023-03-26T09:41:31;5.75;;;2.08;;
22234;SDS011;11286;45.596;5.284;2023-03-26T09:46:48;5.85;;;1.90;;
22234;SDS011;11286;45.596;5.284;2023-03-26T09:55:07;4.28;;;1.90;;
22234;SDS011;11286;45.596;5.284;2023-03-26T10:00:28;4.97;;;1.90;;
22234;SDS011;11286;45.596;5.284;2023-03-26T10:03:10;6.45;;;1.90;;
22234;SDS011;11286;45.596;5.284;2023-03-26T10:05:56;5.75;;;2.30;;
22234;SDS011;11286;45.596;5.284;2023-03-26T10:14:19;5.40;;;2.28;;
22234;SDS011;11286;45.596;5.284;2023-03-26T10:17:02;7.20;;;2.65;;
22234;SDS011;11286;45.596;5.284;2023-03-26T10:28:08;6.70;;;2.50;;
22234;SDS011;11286;45.596;5.284;2023-03-26T10:30:51;7.25;;;2.30;;
22234;SDS011;11286;45.596;5.284;2023-03-26T10:36:30;6.70;;;2.50;;
22234;SDS011;11286;45.596;5.284;2023-03-26T10:39:02;7.57;;;2.40;;
22234;SDS011;11286;45.596;5.284;2023-03-26T10:44:35;5.25;;;2.80;;
22234;SDS011;11286;45.596;5.284;2023-03-26T10:52:20;5.38;;;2.38;;
22234;SDS011;11286;45.596;5.284;2023-03-26T11:00:24;7.75;;;2.75;;
22234;SDS011;11286;45.596;5.284;2023-03-26T11:05:45;9.32;;;2.72;;
22234;SDS011;11286;45.596;5.284;2023-03-26T11:08:14;9.57;;;3.10;;
22234;SDS011;11286;45.596;5.284;2023-03-26T11:10:59;8.35;;;3.13;;
22234;SDS011;11286;45.596;5.284;2023-03-26T11:13:55;5.97;;;2.28;;
22234;SDS011;11286;45.596;5.284;2023-03-26T11:21:59;7.28;;;2.55;;
22234;SDS011;11286;45.596;5.284;2023-03-26T11:32:49;4.60;;;2.20;;
22234;SDS011;11286;45.596;5.284;2023-03-26T11:35:34;5.55;;;2.42;;
22234;SDS011;11286;45.596;5.284;2023-03-26T11:38:11;4.18;;;2.10;;
22234;SDS011;11286;45.596;5.284;2023-03-26T11:40:46;5.20;;;2.05;;
22234;SDS011;11286;45.596;5.284;2023-03-26T11:43:15;3.42;;;1.90;;
22234;SDS011;11286;45.596;5.284;2023-03-26T11:45:46;4.03;;;1.90;;
22234;SDS011;11286;45.596;5.284;2023-03-26T11:48:16;2.95;;;1.67;;
22234;SDS011;11286;45.596;5.284;2023-03-26T11:51:04;5.05;;;1.63;;
22234;SDS011;11286;45.596;5.284;2023-03-26T11:53:33;3.42;;;1.40;;
22234;SDS011;11286;45.596;5.284;2023-03-26T11:56:04;3.55;;;1.50;;
22234;SDS011;11286;45.596;5.284;2023-03-26T11:58:41;4.93;;;2.38;;
22234;SDS011;11286;45.596;5.284;2023-03-26T12:01:27;4.95;;;1.85;;
22234;SDS011;11286;45.596;5.284;2023-03-26T12:04:09;3.75;;;1.40;;
22234;SDS011;11286;45.596;5.284;2023-03-26T12:06:37;3.05;;;1.50;;
22234;SDS011;11286;45.596;5.284;2023-03-26T12:09:10;4.85;;;1.60;;
22234;SDS011;11286;45.596;5.284;2023-03-26T12:11:41;3.35;;;1.65;;
22234;SDS011;11286;45.596;5.284;2023-03-26T12:14:12;4.07;;;1.77;;
22234;SDS011;11286;45.596;5.284;2023-03-26T12:19:40;2.88;;;1.17;;
22234;SDS011;11286;45.596;5.284;2023-03-26T12:30:38;4.20;;;1.10;;
22234;SDS011;11286;45.596;5.284;2023-03-26T12:33:11;5.13;;;1.23;;
22234;SDS011;11286;45.596;5.284;2023-03-26T12:35:50;3.40;;;1.00;;
22234;SDS011;11286;45.596;5.284;2023-03-26T12:41:06;2.58;;;1.25;;
22234;SDS011;11286;45.596;5.284;2023-03-26T12:43:46;3.30;;;1.00;;
22234;SDS011;11286;45.596;5.284;2023-03-26T12:46:34;2.78;;;0.95;;
22234;SDS011;11286;45.596;5.284;2023-03-26T12:49:04;1.75;;;1.17;;
22234;SDS011;11286;45.596;5.284;2023-03-26T12:57:32;2.28;;;0.90;;
22234;SDS011;11286;45.596;5.284;2023-03-26T13:05:50;2.90;;;1.10;;
22234;SDS011;11286;45.596;5.284;2023-03-26T13:17:25;2.05;;;1.02;;
22234;SDS011;11286;45.596;5.284;2023-03-26T13:25:00;0.98;;;0.70;;
22234;SDS011;11286;45.596;5.284;2023-03-26T13:35:21;1.58;;;0.60;;
22234;SDS011;11286;45.596;5.284;2023-03-26T13:37:54;1.35;;;0.80;;
22234;SDS011;11286;45.596;5.284;2023-03-26T13:43:31;2.00;;;0.60;;
22234;SDS011;11286;45.596;5.284;2023-03-26T13:48:39;1.05;;;0.50;;
22234;SDS011;11286;45.596;5.284;2023-03-26T13:51:24;2.78;;;0.75;;
22234;SDS011;11286;45.596;5.284;2023-03-26T13:53:59;1.42;;;0.70;;
22234;SDS011;11286;45.596;5.284;2023-03-26T13:56:37;1.48;;;0.52;;
22234;SDS011;11286;45.596;5.284;2023-03-26T13:59:11;3.05;;;0.90;;
22234;SDS011;11286;45.596;5.284;2023-03-26T14:01:51;1.67;;;0.60;;
22234;SDS011;11286;45.596;5.284;2023-03-26T14:09:33;1.42;;;0.60;;
22234;SDS011;11286;45.596;5.284;2023-03-26T14:12:17;1.20;;;0.80;;
22234;SDS011;11286;45.596;5.284;2023-03-26T14:20:19;1.48;;;0.70;;
22234;SDS011;11286;45.596;5.284;2023-03-26T14:28:20;1.05;;;0.75;;
22234;SDS011;11286;45.596;5.284;2023-03-26T14:30:59;1.05;;;0.50;;
22234;SDS011;11286;45.596;5.284;2023-03-26T14:41:52;1.13;;;0.65;;
22234;SDS011;11286;45.596;5.284;2023-03-26T14:44:45;2.45;;;0.70;;
22234;SDS011;11286;45.596;5.284;2023-03-26T14:47:30;2.17;;;0.70;;
22234;SDS011;11286;45.596;5.284;2023-03-26T15:07:25;1.38;;;0.90;;
22234;SDS011;11286;45.596;5.284;2023-03-26T15:18:32;2.60;;;1.10;;
22234;SDS011;11286;45.596;5.284;2023-03-26T15:32:38;1.75;;;0.85;;
22234;SDS011;11286;45.596;5.284;2023-03-26T15:38:47;1.88;;;0.57;;
22234;SDS011;11286;45.596;5.284;2023-03-26T15:44:35;1.75;;;0.47;;
22234;SDS011;11286;45.596;5.284;2023-03-26T15:50:12;1.70;;;0.55;;
22234;SDS011;11286;45.596;5.284;2023-03-26T15:57:57;1.25;;;0.70;;
22234;SDS011;11286;45.596;5.284;2023-03-26T16:00:37;2.88;;;0.50;;
22234;SDS011;11286;45.596;5.284;2023-03-26T16:03:40;1.70;;;0.70;;
22234;SDS011;11286;45.596;5.284;2023-03-26T16:09:11;0.90;;;0.52;;
22234;SDS011;11286;45.596;5.284;2023-03-26T16:11:59;0.90;;;0.50;;
22234;SDS011;11286;45.596;5.284;2023-03-26T16:15:22;1.10;;;0.70;;
22234;SDS011;11286;45.596;5.284;2023-03-26T16:31:35;5.18;;;2.10;;
22234;SDS011;11286;45.596;5.284;2023-03-26T16:36:41;2.35;;;0.93;;
22234;SDS011;11286;45.596;5.284;2023-03-26T16:39:23;5.32;;;2.78;;
22234;SDS011;11286;45.596;5.284;2023-03-26T16:45:07;1.80;;;0.90;;
22234;SDS011;11286;45.596;5.284;2023-03-26T16:47:35;2.75;;;1.20;;
22234;SDS011;11286;45.596;5.284;2023-03-26T16:53:25;1.33;;;0.80;;
22234;SDS011;11286;45.596;5.284;2023-03-26T16:59:00;3.28;;;0.80;;
22234;SDS011;11286;45.596;5.284;2023-03-26T17:01:49;0.70;;;0.50;;
22234;SDS011;11286;45.596;5.284;2023-03-26T17:04:26;1.55;;;0.88;;
22234;SDS011;11286;45.596;5.284;2023-03-26T17:20:50;3.00;;;2.10;;
22234;SDS011;11286;45.596;5.284;2023-03-26T17:26:45;3.58;;;1.65;;
22234;SDS011;11286;45.596;5.284;2023-03-26T17:37:23;6.65;;;2.95;;
22234;SDS011;11286;45.596;5.284;2023-03-26T17:47:48;4.15;;;1.65;;
22234;SDS011;11286;45.596;5.284;2023-03-26T17:50:26;3.70;;;1.83;;
22234;SDS011;11286;45.596;5.284;2023-03-26T17:53:00;2.65;;;1.40;;
22234;SDS011;11286;45.596;5.284;2023-03-26T17:55:30;2.97;;;1.77;;
22234;SDS011;11286;45.596;5.284;2023-03-26T17:58:01;4.25;;;2.20;;
22234;SDS011;11286;45.596;5.284;2023-03-26T18:00:34;3.17;;;1.88;;
22234;SDS011;11286;45.596;5.284;2023-03-26T18:05:56;2.28;;;0.95;;
22234;SDS011;11286;45.596;5.284;2023-03-26T18:08:50;2.72;;;0.90;;
22234;SDS011;11286;45.596;5.284;2023-03-26T18:17:16;2.92;;;1.27;;
22234;SDS011;11286;45.596;5.284;2023-03-26T18:19:52;4.15;;;1.40;;
22234;SDS011;11286;45.596;5.284;2023-03-26T18:22:21;2.63;;;0.80;;
22234;SDS011;11286;45.596;5.284;2023-03-26T18:25:01;2.78;;;1.00;;
22234;SDS011;11286;45.596;5.284;2023-03-26T18:27:38;3.15;;;1.40;;
22234;SDS011;11286;45.596;5.284;2023-03-26T18:30:15;3.08;;;1.25;;
22234;SDS011;11286;45.596;5.284;2023-03-26T18:32:56;2.13;;;1.30;;
22234;SDS011;11286;45.596;5.284;2023-03-26T18:35:26;2.38;;;1.20;;
22234;SDS011;11286;45.596;5.284;2023-03-26T18:38:01;2.95;;;1.30;;
22234;SDS011;11286;45.596;5.284;2023-03-26T18:40:30;4.20;;;1.70;;
22234;SDS011;11286;45.596;5.284;2023-03-26T18:43:03;3.05;;;1.48;;
22234;SDS011;11286;45.596;5.284;2023-03-26T18:45:30;4.55;;;1.60;;
22234;SDS011;11286;45.596;5.284;2023-03-26T18:48:02;6.40;;;2.50;;
22234;SDS011;11286;45.596;5.284;2023-03-26T18:50:34;5.07;;;2.17;;
22234;SDS011;11286;45.596;5.284;2023-03-26T18:53:16;3.55;;;1.48;;
22234;SDS011;11286;45.596;5.284;2023-03-26T18:55:45;3.20;;;1.38;;
22234;SDS011;11286;45.596;5.284;2023-03-26T18:58:22;3.85;;;1.88;;
22234;SDS011;11286;45.596;5.284;2023-03-26T19:00:54;5.43;;;1.60;;
22234;SDS011;11286;45.596;5.284;2023-03-26T19:03:23;4.30;;;1.42;;
22234;SDS011;11286;45.596;5.284;2023-03-26T19:05:51;3.65;;;1.73;;
22234;SDS011;11286;45.596;5.284;2023-03-26T19:08:19;4.55;;;1.15;;
22234;SDS011;11286;45.596;5.284;2023-03-26T19:10:47;3.28;;;1.30;;
22234;SDS011;11286;45.596;5.284;2023-03-26T19:13:14;3.75;;;1.15;;
22234;SDS011;11286;45.596;5.284;2023-03-26T19:15:43;1.85;;;0.80;;
22234;SDS011;11286;45.596;5.284;2023-03-26T19:18:13;2.60;;;1.00;;
22234;SDS011;11286;45.596;5.284;2023-03-26T19:23:14;3.92;;;1.45;;
22234;SDS011;11286;45.596;5.284;2023-03-26T19:25:46;4.10;;;1.42;;
22234;SDS011;11286;45.596;5.284;2023-03-26T19:28:21;3.08;;;1.65;;
22234;SDS011;11286;45.596;5.284;2023-03-26T19:31:05;4.68;;;2.03;;
22234;SDS011;11286;45.596;5.284;2023-03-26T19:33:36;3.08;;;1.80;;
22234;SDS011;11286;45.596;5.284;2023-03-26T19:36:14;3.17;;;1.52;;
22234;SDS011;11286;45.596;5.284;2023-03-26T19:38:52;4.05;;;2.30;;
22234;SDS011;11286;45.596;5.284;2023-03-26T19:44:04;8.45;;;4.57;;
22234;SDS011;11286;45.596;5.284;2023-03-26T19:46:42;6.95;;;3.60;;
22234;SDS011;11286;45.596;5.284;2023-03-26T19:52:01;3.28;;;1.50;;
22234;SDS011;11286;45.596;5.284;2023-03-26T19:54:28;2.03;;;1.20;;
22234;SDS011;11286;45.596;5.284;2023-03-26T19:56:55;3.30;;;1.30;;
22234;SDS011;11286;45.596;5.284;2023-03-26T19:59:20;3.58;;;2.00;;
22234;SDS011;11286;45.596;5.284;2023-03-26T20:01:46;3.15;;;1.70;;
22234;SDS011;11286;45.596;5.284;2023-03-26T20:04:13;2.38;;;1.90;;
22234;SDS011;11286;45.596;5.284;2023-03-26T20:06:38;2.13;;;1.42;;
22234;SDS011;11286;45.596;5.284;2023-03-26T20:09:04;2.90;;;2.17;;
22234;SDS011;11286;45.596;5.284;2023-03-26T20:11:31;3.42;;;1.52;;
22234;SDS011;11286;45.596;5.284;2023-03-26T20:14:01;3.05;;;1.50;;
22234;SDS011;11286;45.596;5.284;2023-03-26T20:16:32;3.92;;;1.70;;
22234;SDS011;11286;45.596;5.284;2023-03-26T20:18:59;3.13;;;1.40;;
22234;SDS011;11286;45.596;5.284;2023-03-26T20:21:28;7.43;;;2.05;;
22234;SDS011;11286;45.596;5.284;2023-03-26T20:23:59;2.10;;;1.30;;
22234;SDS011;11286;45.596;5.284;2023-03-26T20:26:25;6.00;;;1.92;;
22234;SDS011;11286;45.596;5.284;2023-03-26T20:28:50;5.70;;;2.13;;
22234;SDS011;11286;45.596;5.284;2023-03-26T20:31:21;7.50;;;2.20;;
22234;SDS011;11286;45.596;5.284;2023-03-26T20:33:49;5.38;;;2.53;;
22234;SDS011;11286;45.596;5.284;2023-03-26T20:36:16;6.72;;;2.80;;
22234;SDS011;11286;45.596;5.284;2023-03-26T20:38:44;4.60;;;2.20;;
22234;SDS011;11286;45.596;5.284;2023-03-26T20:41:15;4.00;;;1.90;;
22234;SDS011;11286;45.596;5.284;2023-03-26T20:43:45;4.45;;;1.88;;
22234;SDS011;11286;45.596;5.284;2023-03-26T20:46:15;3.17;;;1.70;;
22234;SDS011;11286;45.596;5.284;2023-03-26T20:48:45;3.17;;;1.65;;
22234;SDS011;11286;45.596;5.284;2023-03-26T20:51:11;2.80;;;1.40;;
22234;SDS011;11286;45.596;5.284;2023-03-26T20:53:42;1.73;;;1.27;;
22234;SDS011;11286;45.596;5.284;2023-03-26T20:56:17;3.45;;;1.40;;
22234;SDS011;11286;45.596;5.284;2023-03-26T20:58:44;4.43;;;1.65;;
22234;SDS011;11286;45.596;5.284;2023-03-26T21:01:11;3.58;;;1.20;;
22234;SDS011;11286;45.596;5.284;2023-03-26T21:03:37;3.15;;;1.35;;
22234;SDS011;11286;45.596;5.284;2023-03-26T21:06:05;1.52;;;1.10;;
22234;SDS011;11286;45.596;5.284;2023-03-26T21:08:36;2.63;;;1.05;;
22234;SDS011;11286;45.596;5.284;2023-03-26T21:11:02;3.08;;;1.17;;
22234;SDS011;11286;45.596;5.284;2023-03-26T21:13:39;4.32;;;1.27;;
22234;SDS011;11286;45.596;5.284;2023-03-26T21:16:10;1.98;;;1.08;;